createdAt,value
2022-10-09T00:01:52.460Z,100.00
2022-10-09T00:04:22.265Z,100.00
2022-10-09T00:06:54.653Z,100.00
2022-10-09T00:09:24.422Z,100.00
2022-10-09T00:11:54.279Z,100.00
2022-10-09T00:14:24.010Z,100.00
2022-10-09T00:16:53.830Z,100.00
2022-10-09T00:19:23.659Z,100.00
2022-10-09T00:21:56.021Z,100.00
2022-10-09T00:24:25.845Z,100.00
2022-10-09T00:26:55.582Z,100.00
2022-10-09T00:29:25.509Z,100.00
2022-10-09T00:31:55.285Z,100.00
2022-10-09T00:34:25.001Z,100.00
2022-10-09T00:36:57.338Z,100.00
2022-10-09T00:39:27.077Z,100.00
2022-10-09T00:41:56.784Z,100.00
2022-10-09T00:44:52.993Z,100.00
2022-10-09T00:47:28.182Z,100.00
2022-10-09T00:50:02.804Z,100.00
2022-10-09T00:52:35.638Z,100.00
2022-10-09T00:55:07.040Z,100.00
2022-10-09T00:57:37.342Z,100.00
2022-10-09T01:00:12.620Z,100.00
2022-10-09T01:02:42.805Z,100.00
2022-10-09T01:05:16.933Z,100.00
2022-10-09T01:07:55.597Z,100.00
2022-10-09T01:10:32.283Z,100.00
2022-10-09T01:13:09.441Z,100.00
2022-10-09T01:15:47.288Z,100.00
2022-10-09T01:18:25.100Z,100.00
2022-10-09T01:20:57.631Z,100.00
2022-10-09T01:23:51.073Z,100.00
2022-10-09T01:26:34.514Z,100.00
2022-10-09T01:29:10.927Z,100.00
2022-10-09T01:31:44.730Z,100.00
2022-10-09T01:34:16.392Z,100.00
2022-10-09T01:36:47.674Z,100.00
2022-10-09T01:39:20.297Z,100.00
2022-10-09T01:41:51.806Z,100.00
2022-10-09T01:44:25.653Z,100.00
2022-10-09T01:46:56.109Z,100.00
2022-10-09T01:49:42.108Z,100.00
2022-10-09T01:52:23.401Z,100.00
2022-10-09T01:55:03.830Z,100.00
2022-10-09T01:57:43.185Z,100.00
2022-10-09T02:00:16.793Z,100.00
2022-10-09T02:02:48.186Z,100.00
2022-10-09T02:05:22.125Z,100.00
2022-10-09T02:07:52.193Z,100.00
2022-10-09T02:10:24.369Z,100.00
2022-10-09T02:12:58.097Z,100.00
2022-10-09T02:15:34.368Z,100.00
2022-10-09T02:18:11.201Z,100.00
2022-10-09T02:20:47.301Z,100.00
2022-10-09T02:23:19.960Z,100.00
2022-10-09T02:25:49.762Z,100.00
2022-10-09T02:28:19.753Z,100.00
2022-10-09T02:30:58.643Z,100.00
2022-10-09T02:33:34.591Z,100.00
2022-10-09T02:36:04.926Z,100.00
2022-10-09T02:38:34.706Z,100.00
2022-10-09T02:41:05.025Z,100.00
2022-10-09T02:43:34.774Z,100.00
2022-10-09T02:46:07.237Z,100.00
2022-10-09T02:48:37.109Z,100.00
2022-10-09T02:51:07.074Z,100.00
2022-10-09T02:53:36.874Z,100.00
2022-10-09T02:56:06.670Z,100.00
2022-10-09T02:58:38.476Z,100.00
2022-10-09T03:01:10.815Z,100.00
2022-10-09T03:03:40.791Z,100.00
2022-10-09T03:06:12.801Z,100.00
2022-10-09T03:08:45.263Z,100.00
2022-10-09T03:11:16.892Z,100.00
2022-10-09T03:13:47.141Z,100.00
2022-10-09T03:16:21.462Z,100.00
2022-10-09T03:18:52.241Z,100.00
2022-10-09T03:21:23.509Z,100.00
2022-10-09T03:23:53.768Z,100.00
2022-10-09T03:26:25.248Z,100.00
2022-10-09T03:28:56.433Z,100.00
2022-10-09T03:34:19.821Z,100.00
2022-10-09T03:36:49.622Z,100.00
2022-10-09T03:39:19.322Z,100.00
2022-10-09T03:41:49.080Z,100.00
2022-10-09T03:44:18.792Z,100.00
2022-10-09T03:46:52.693Z,100.00
2022-10-09T03:49:22.490Z,100.00
2022-10-09T03:51:52.232Z,100.00
2022-10-09T03:54:21.975Z,100.00
2022-10-09T03:56:51.701Z,100.00
2022-10-09T03:59:21.438Z,100.00
2022-10-09T04:01:53.837Z,100.00
2022-10-09T04:04:23.576Z,99.94
2022-10-09T04:06:53.325Z,99.93
2022-10-09T04:09:23.037Z,99.85
2022-10-09T04:11:52.777Z,99.81
2022-10-09T04:14:22.534Z,99.74
2022-10-09T04:16:54.839Z,99.63
2022-10-09T04:19:24.745Z,99.71
2022-10-09T04:21:54.487Z,99.62
2022-10-09T04:24:24.178Z,99.48
2022-10-09T04:26:54.039Z,99.52
2022-10-09T04:29:23.879Z,99.42
2022-10-09T04:31:56.230Z,99.42
2022-10-09T04:34:26.371Z,99.33
2022-10-09T04:36:56.079Z,99.29
2022-10-09T04:39:25.814Z,99.34
2022-10-09T04:41:55.535Z,99.32
2022-10-09T04:44:25.298Z,99.24
2022-10-09T04:46:57.808Z,99.35
2022-10-09T04:49:27.582Z,99.34
2022-10-09T04:51:57.314Z,99.29
2022-10-09T04:54:27.050Z,99.29
2022-10-09T04:56:56.846Z,99.24
2022-10-09T04:59:26.587Z,99.35
2022-10-09T05:01:59.065Z,99.39
2022-10-09T05:04:28.950Z,99.33
2022-10-09T05:06:58.716Z,99.33
2022-10-09T05:09:28.586Z,99.25
2022-10-09T05:11:58.374Z,99.34
2022-10-09T05:14:28.189Z,99.27
2022-10-09T05:17:23.144Z,99.24
2022-10-09T05:19:53.331Z,99.31
2022-10-09T05:22:23.058Z,99.29
2022-10-09T05:24:52.842Z,99.37
2022-10-09T05:27:22.595Z,99.33
2022-10-09T05:29:52.324Z,99.40
2022-10-09T05:32:24.706Z,99.44
2022-10-09T05:34:54.443Z,99.43
2022-10-09T05:37:24.151Z,99.36
2022-10-09T05:39:53.854Z,99.40
2022-10-09T05:42:23.594Z,99.43
2022-10-09T05:44:53.323Z,99.47
2022-10-09T05:47:25.781Z,99.45
2022-10-09T05:49:55.534Z,99.46
2022-10-09T05:52:25.264Z,99.46
2022-10-09T05:54:57.027Z,99.52
2022-10-09T05:57:26.740Z,99.42
2022-10-09T05:59:56.462Z,99.49
2022-10-09T06:02:28.885Z,99.57
2022-10-09T06:04:58.860Z,99.58
2022-10-09T06:07:28.602Z,99.61
2022-10-09T06:09:58.346Z,99.56
2022-10-09T06:12:28.077Z,99.62
2022-10-09T06:14:57.971Z,99.66
2022-10-09T06:17:30.354Z,99.64
2022-10-09T06:20:00.131Z,99.74
2022-10-09T06:22:29.920Z,99.69
2022-10-09T06:24:59.676Z,99.75
2022-10-09T06:27:30.620Z,99.75
2022-10-09T06:30:01.279Z,99.78
2022-10-09T06:32:33.704Z,99.86
2022-10-09T06:35:03.469Z,99.85
2022-10-09T06:37:33.212Z,99.94
2022-10-09T06:40:03.000Z,99.98
2022-10-09T06:42:32.954Z,99.97
2022-10-09T06:45:02.727Z,100.00
2022-10-09T06:47:35.165Z,100.00
2022-10-09T06:50:04.919Z,100.00
2022-10-09T06:52:34.916Z,100.00
2022-10-09T06:55:04.646Z,100.00
2022-10-09T06:57:34.719Z,100.00
2022-10-09T07:00:04.545Z,100.00
2022-10-09T07:02:43.179Z,100.00
2022-10-09T07:05:13.779Z,100.00
2022-10-09T07:07:43.957Z,100.00
2022-10-09T07:10:13.839Z,100.00
2022-10-09T07:12:43.580Z,100.00
2022-10-09T07:15:14.127Z,100.00
2022-10-09T07:17:46.486Z,100.00
2022-10-09T07:20:16.210Z,100.00
2022-10-09T07:22:46.320Z,100.00
2022-10-09T07:25:16.432Z,100.00
2022-10-09T07:27:46.244Z,100.00
2022-10-09T07:30:16.320Z,100.00
2022-10-09T07:32:49.034Z,100.00
2022-10-09T07:35:19.239Z,100.00
2022-10-09T07:37:48.968Z,100.00
2022-10-09T07:40:21.145Z,100.00
2022-10-09T07:42:51.207Z,100.00
2022-10-09T07:45:21.131Z,100.00
2022-10-09T07:47:53.452Z,100.00
2022-10-09T07:50:23.235Z,100.00
2022-10-09T07:52:52.950Z,100.00
2022-10-09T07:55:22.695Z,100.00
2022-10-09T07:57:53.521Z,100.00
2022-10-09T08:00:23.329Z,100.00
2022-10-09T08:02:55.937Z,100.00
2022-10-09T08:05:25.737Z,100.00
2022-10-09T08:07:55.471Z,100.00
2022-10-09T08:10:25.247Z,100.00
2022-10-09T08:12:55.762Z,100.00
2022-10-09T08:15:25.659Z,100.00
2022-10-09T08:17:58.371Z,100.00
2022-10-09T08:20:28.112Z,100.00
2022-10-09T08:22:57.817Z,100.00
2022-10-09T08:25:27.683Z,100.00
2022-10-09T08:27:58.234Z,100.00
2022-10-09T08:30:27.987Z,100.00
2022-10-09T08:33:00.386Z,100.00
2022-10-09T08:35:34.416Z,100.00
2022-10-09T08:38:04.470Z,100.00
2022-10-09T08:40:42.073Z,100.00
2022-10-09T08:43:18.253Z,100.00
2022-10-09T08:45:50.337Z,100.00
2022-10-09T08:48:28.451Z,100.00
2022-10-09T08:51:01.802Z,100.00
2022-10-09T08:53:41.454Z,100.00
2022-10-09T08:56:17.062Z,100.00
2022-10-09T08:58:47.472Z,100.00
2022-10-09T09:01:25.825Z,100.00
2022-10-09T09:04:11.275Z,100.00
2022-10-09T09:06:49.169Z,100.00
2022-10-09T09:09:26.504Z,100.00
2022-10-09T09:12:02.400Z,100.00
2022-10-09T09:14:46.169Z,100.00
2022-10-09T09:17:26.368Z,100.00
2022-10-09T09:20:08.279Z,100.00
2022-10-09T09:22:42.830Z,100.00
2022-10-09T09:25:24.103Z,100.00
2022-10-09T09:27:56.946Z,100.00
2022-10-09T09:30:31.467Z,100.00
2022-10-09T09:33:10.357Z,100.00
2022-10-09T09:35:52.062Z,100.00
2022-10-09T09:38:21.833Z,100.00
2022-10-09T09:40:52.135Z,100.00
2022-10-09T09:43:24.550Z,100.00
2022-10-09T09:45:56.413Z,100.00
2022-10-09T09:48:35.091Z,100.00
2022-10-09T09:51:27.416Z,100.00
2022-10-09T09:54:01.992Z,100.00
2022-10-09T09:57:10.509Z,100.00
2022-10-09T09:59:35.110Z,100.00
2022-10-09T10:02:07.420Z,100.00
2022-10-09T10:04:42.451Z,100.00
2022-10-09T10:07:15.643Z,100.00
2022-10-09T10:09:45.389Z,100.00
2022-10-09T10:12:19.333Z,100.00
2022-10-09T10:14:53.375Z,100.00
2022-10-09T10:17:32.016Z,100.00
2022-10-09T10:20:01.869Z,100.00
2022-10-09T10:22:39.148Z,100.00
2022-10-09T10:25:18.077Z,100.00
2022-10-09T10:27:51.214Z,100.00
2022-10-09T10:30:22.665Z,100.00
2022-10-09T10:32:58.682Z,100.00
2022-10-09T10:35:32.081Z,100.00
2022-10-09T10:38:07.963Z,100.00
2022-10-09T10:40:40.438Z,100.00
2022-10-09T10:43:18.759Z,100.00
2022-10-09T10:45:59.418Z,100.00
2022-10-09T10:48:32.527Z,100.00
2022-10-09T10:51:11.079Z,100.00
2022-10-09T10:54:01.247Z,100.00
2022-10-09T10:56:34.416Z,100.00
2022-10-09T10:59:22.786Z,100.00
2022-10-09T11:02:03.898Z,100.00
2022-10-09T11:04:42.787Z,100.00
2022-10-09T11:07:29.433Z,100.00
2022-10-09T11:10:12.217Z,100.00
2022-10-09T11:12:52.110Z,100.00
2022-10-09T11:15:31.002Z,100.00
2022-10-09T11:18:12.130Z,100.00
2022-10-09T11:20:57.212Z,100.00
2022-10-09T11:23:36.081Z,100.00
2022-10-09T11:26:18.127Z,100.00
2022-10-09T11:28:54.931Z,100.00
2022-10-09T11:31:31.382Z,100.00
2022-10-09T11:34:07.366Z,100.00
2022-10-09T11:36:45.482Z,100.00
2022-10-09T11:39:18.864Z,100.00
2022-10-09T11:41:55.523Z,100.00
2022-10-09T11:44:40.280Z,100.00
2022-10-09T11:47:17.592Z,99.95
2022-10-09T11:50:00.621Z,99.57
2022-10-09T11:52:42.489Z,99.34
2022-10-09T11:55:22.261Z,98.97
2022-10-09T11:57:54.645Z,98.69
2022-10-09T12:00:34.503Z,98.41
2022-10-09T12:03:07.117Z,98.05
2022-10-09T12:05:42.948Z,97.78
2022-10-09T12:08:19.249Z,97.55
2022-10-09T12:10:55.468Z,97.28
2022-10-09T12:13:43.944Z,96.83
2022-10-09T12:16:29.820Z,96.68
2022-10-09T12:19:01.938Z,96.34
2022-10-09T12:21:37.188Z,95.94
2022-10-09T12:24:07.700Z,95.64
2022-10-09T12:26:38.678Z,95.49
2022-10-09T12:29:22.072Z,95.18
2022-10-09T12:31:54.433Z,94.83
2022-10-09T12:34:27.877Z,94.50
2022-10-09T12:37:13.900Z,94.22
2022-10-09T12:39:44.013Z,94.01
2022-10-09T12:42:20.432Z,93.60
2022-10-09T12:44:56.059Z,93.44
2022-10-09T12:47:29.523Z,93.11
2022-10-09T12:50:02.044Z,92.78
2022-10-09T12:52:33.492Z,92.45
2022-10-09T12:55:05.200Z,92.03
2022-10-09T12:57:36.220Z,91.86
2022-10-09T13:00:09.739Z,91.55
2022-10-09T13:02:39.661Z,91.22
2022-10-09T13:05:10.205Z,90.95
2022-10-09T13:07:40.201Z,90.65
2022-10-09T13:10:19.879Z,90.35
2022-10-09T13:12:54.666Z,90.23
2022-10-09T13:15:35.405Z,89.80
2022-10-09T13:18:22.740Z,89.58
2022-10-09T13:21:01.994Z,89.34
2022-10-09T13:23:34.127Z,89.03
2022-10-09T13:26:05.206Z,88.70
2022-10-09T13:28:35.220Z,88.31
2022-10-09T13:31:15.325Z,87.97
2022-10-09T13:33:45.115Z,87.35
2022-10-09T13:36:15.570Z,87.05
2022-10-09T13:38:45.799Z,86.95
2022-10-09T13:41:17.540Z,86.70
2022-10-09T13:43:47.833Z,86.52
2022-10-09T13:46:20.268Z,86.38
2022-10-09T13:48:50.253Z,86.13
2022-10-09T13:51:20.065Z,86.16
2022-10-09T13:53:50.116Z,85.92
2022-10-09T13:56:20.034Z,85.91
2022-10-09T13:58:49.843Z,85.68
2022-10-09T14:01:22.432Z,85.64
2022-10-09T14:03:52.435Z,85.14
2022-10-09T14:06:22.619Z,85.21
2022-10-09T14:08:52.844Z,84.91
2022-10-09T14:11:22.926Z,84.88
2022-10-09T14:13:52.792Z,84.93
2022-10-09T14:16:25.280Z,84.80
2022-10-09T14:18:58.434Z,84.77
2022-10-09T14:21:29.142Z,84.58
2022-10-09T14:24:00.438Z,84.51
2022-10-09T14:26:31.240Z,84.30
2022-10-09T14:29:03.147Z,84.30
2022-10-09T14:31:35.766Z,84.26
2022-10-09T14:34:05.868Z,84.14
2022-10-09T14:36:37.296Z,84.07
2022-10-09T14:39:07.401Z,84.17
2022-10-09T14:41:38.049Z,84.00
2022-10-09T14:44:08.487Z,83.96
2022-10-09T14:46:40.902Z,83.94
2022-10-09T14:49:13.265Z,84.01
2022-10-09T14:51:44.016Z,83.88
2022-10-09T14:54:15.290Z,83.84
2022-10-09T14:56:45.159Z,83.95
2022-10-09T14:59:15.168Z,83.87
2022-10-09T15:01:47.607Z,83.86
2022-10-09T15:04:17.694Z,83.93
2022-10-09T15:06:47.451Z,84.00
2022-10-09T15:09:17.216Z,84.10
2022-10-09T15:11:47.007Z,83.95
2022-10-09T15:14:16.730Z,83.98
2022-10-09T15:16:49.024Z,84.04
2022-10-09T15:19:18.733Z,84.04
2022-10-09T15:21:48.488Z,83.79
2022-10-09T15:24:18.178Z,83.98
2022-10-09T15:26:47.892Z,84.02
2022-10-09T15:29:17.678Z,84.02
2022-10-09T15:31:52.932Z,83.96
2022-10-09T15:34:23.082Z,84.03
2022-10-09T15:36:52.783Z,84.01
2022-10-09T15:39:23.747Z,84.07
2022-10-09T15:41:53.546Z,84.04
2022-10-09T15:44:23.860Z,83.99
2022-10-09T15:46:56.193Z,84.11
2022-10-09T15:49:25.912Z,83.97
2022-10-09T15:51:55.733Z,84.04
2022-10-09T15:54:25.582Z,84.08
2022-10-09T15:56:55.336Z,84.13
2022-10-09T15:59:25.890Z,84.22
2022-10-09T16:01:58.442Z,84.29
2022-10-09T16:04:28.204Z,84.17
2022-10-09T16:06:58.267Z,84.19
2022-10-09T16:09:27.962Z,84.30
2022-10-09T16:11:57.670Z,84.30
2022-10-09T16:14:30.228Z,84.43
2022-10-09T16:17:03.921Z,84.49
2022-10-09T16:19:34.383Z,84.48
2022-10-09T16:22:05.278Z,84.53
2022-10-09T16:24:35.121Z,84.80
2022-10-09T16:27:04.888Z,84.77
2022-10-09T16:29:34.620Z,84.98
2022-10-09T16:32:07.052Z,85.00
2022-10-09T16:34:36.782Z,85.03
2022-10-09T16:37:06.589Z,85.08
2022-10-09T16:39:36.539Z,85.21
2022-10-09T16:42:06.807Z,85.21
2022-10-09T16:44:36.553Z,85.32
2022-10-09T16:47:08.986Z,85.52
2022-10-09T16:49:38.717Z,85.54
2022-10-09T16:52:08.482Z,85.84
2022-10-09T16:54:39.099Z,85.88
2022-10-09T16:57:08.856Z,85.93
2022-10-09T16:59:38.741Z,85.98
2022-10-09T17:02:13.293Z,86.07
2022-10-09T17:04:43.622Z,86.14
2022-10-09T17:07:14.242Z,86.18
2022-10-09T17:09:44.034Z,86.10
2022-10-09T17:12:13.948Z,86.30
2022-10-09T17:14:43.896Z,86.19
2022-10-09T17:17:16.574Z,86.26
2022-10-09T17:19:46.345Z,86.37
2022-10-09T17:22:16.123Z,86.47
2022-10-09T17:24:46.082Z,86.37
2022-10-09T17:27:15.904Z,86.51
2022-10-09T17:29:45.965Z,86.63
2022-10-09T17:32:18.485Z,86.69
2022-10-09T17:34:48.429Z,86.81
2022-10-09T17:37:18.163Z,86.83
2022-10-09T17:39:52.040Z,86.97
2022-10-09T17:42:22.220Z,86.88
2022-10-09T17:44:51.957Z,86.93
2022-10-09T17:47:24.405Z,86.91
2022-10-09T17:49:54.850Z,87.05
2022-10-09T17:52:24.650Z,87.05
2022-10-09T17:54:54.609Z,87.25
2022-10-09T17:57:24.411Z,87.33
2022-10-09T17:59:54.516Z,87.24
2022-10-09T18:02:27.043Z,87.46
2022-10-09T18:04:58.276Z,87.56
2022-10-09T18:07:28.384Z,87.59
2022-10-09T18:09:58.267Z,87.66
2022-10-09T18:12:28.067Z,87.71
2022-10-09T18:14:59.420Z,87.84
2022-10-09T18:17:33.647Z,87.81
2022-10-09T18:20:03.550Z,87.83
2022-10-09T18:22:33.345Z,87.95
2022-10-09T18:25:03.164Z,88.09
2022-10-09T18:27:32.990Z,88.09
2022-10-09T18:30:02.896Z,88.18
2022-10-09T18:32:35.413Z,88.20
2022-10-09T18:35:05.238Z,88.33
2022-10-09T18:37:35.168Z,88.36
2022-10-09T18:40:05.054Z,88.51
2022-10-09T18:42:34.957Z,88.42
2022-10-09T18:45:05.504Z,88.53
2022-10-09T18:47:38.844Z,88.70
2022-10-09T18:50:12.188Z,88.73
2022-10-09T18:52:44.380Z,88.82
2022-10-09T18:55:17.731Z,88.86
2022-10-09T18:57:49.013Z,88.97
2022-10-09T19:00:19.780Z,88.97
2022-10-09T19:02:52.352Z,89.03
2022-10-09T19:05:22.374Z,89.06
2022-10-09T19:07:52.600Z,89.22
2022-10-09T19:10:22.676Z,89.25
2022-10-09T19:12:52.747Z,89.25
2022-10-09T19:15:22.717Z,89.48
2022-10-09T19:17:55.252Z,89.31
2022-10-09T19:20:25.124Z,89.54
2022-10-09T19:22:55.086Z,89.67
2022-10-09T19:25:25.548Z,89.76
2022-10-09T19:27:55.380Z,89.70
2022-10-09T19:30:25.258Z,89.74
2022-10-09T19:32:57.881Z,89.87
2022-10-09T19:35:27.635Z,90.06
2022-10-09T19:37:59.221Z,90.23
2022-10-09T19:40:28.984Z,90.17
2022-10-09T19:42:58.679Z,90.23
2022-10-09T19:45:28.412Z,90.28
2022-10-09T19:48:01.093Z,90.47
2022-10-09T19:50:31.196Z,90.42
2022-10-09T19:53:04.380Z,90.45
2022-10-09T19:55:35.524Z,90.43
2022-10-09T19:58:06.826Z,90.54
2022-10-09T20:00:36.904Z,90.60
2022-10-09T20:03:09.306Z,90.58
2022-10-09T20:05:39.142Z,90.66
2022-10-09T20:08:09.248Z,90.66
2022-10-09T20:10:41.658Z,90.76
2022-10-09T20:13:11.365Z,90.86
2022-10-09T20:15:44.831Z,90.91
2022-10-09T20:18:17.162Z,91.01
2022-10-09T20:20:49.911Z,90.88
2022-10-09T20:23:19.612Z,90.99
2022-10-09T20:25:50.202Z,90.95
2022-10-09T20:28:20.024Z,90.97
2022-10-09T20:30:58.605Z,91.21
2022-10-09T20:33:31.150Z,91.20
2022-10-09T20:36:00.856Z,91.12
2022-10-09T20:38:30.875Z,91.11
2022-10-09T20:41:06.758Z,91.15
2022-10-09T20:43:36.546Z,91.26
2022-10-09T20:46:09.245Z,91.34
2022-10-09T20:48:41.606Z,91.36
2022-10-09T20:51:11.464Z,91.38
2022-10-09T20:53:41.366Z,91.46
2022-10-09T20:56:12.831Z,91.54
2022-10-09T20:58:42.956Z,91.58
2022-10-09T21:01:16.321Z,91.47
2022-10-09T21:03:48.697Z,91.59
2022-10-09T21:06:20.116Z,91.63
2022-10-09T21:08:50.319Z,91.63
2022-10-09T21:11:21.690Z,91.71
2022-10-09T21:13:52.413Z,91.84
2022-10-09T21:16:23.534Z,91.84
2022-10-09T21:19:00.469Z,91.89
2022-10-09T21:21:31.656Z,92.00
2022-10-09T21:24:02.610Z,92.09
2022-10-09T21:26:35.647Z,92.10
2022-10-09T21:29:06.889Z,92.16
2022-10-09T21:31:37.152Z,92.13
2022-10-09T21:34:09.481Z,92.24
2022-10-09T21:37:02.284Z,92.24
2022-10-09T21:39:33.507Z,92.31
2022-10-09T21:42:03.262Z,92.45
2022-10-09T21:44:33.003Z,92.45
2022-10-09T21:47:02.879Z,92.53
2022-10-09T21:49:35.212Z,92.56
2022-10-09T21:52:04.934Z,92.63
2022-10-09T21:54:34.644Z,92.79
2022-10-09T21:57:04.430Z,92.86
2022-10-09T21:59:34.182Z,92.99
2022-10-09T22:02:03.925Z,92.97
2022-10-09T22:04:36.540Z,93.00
2022-10-09T22:07:06.266Z,93.09
2022-10-09T22:09:35.981Z,93.10
2022-10-09T22:12:05.754Z,93.22
2022-10-09T22:14:35.476Z,93.27
2022-10-09T22:17:05.186Z,93.24
2022-10-09T22:19:37.555Z,93.26
2022-10-09T22:22:07.270Z,93.30
2022-10-09T22:24:37.002Z,93.42
2022-10-09T22:27:07.489Z,93.49
2022-10-09T22:29:38.355Z,93.53
2022-10-09T22:32:08.941Z,93.60
2022-10-09T22:34:41.313Z,93.74
2022-10-09T22:37:11.043Z,93.74
2022-10-09T22:39:40.766Z,93.76
2022-10-09T22:42:10.484Z,93.97
2022-10-09T22:44:40.485Z,94.05
2022-10-09T22:47:10.303Z,94.10
2022-10-09T22:49:42.713Z,94.21
2022-10-09T22:52:12.460Z,94.32
2022-10-09T22:54:42.193Z,94.40
2022-10-09T22:57:11.926Z,94.45
2022-10-09T22:59:41.628Z,94.53
2022-10-09T23:02:11.504Z,94.55
2022-10-09T23:04:43.854Z,94.65
2022-10-09T23:07:13.694Z,94.66
2022-10-09T23:09:43.826Z,94.59
2022-10-09T23:12:13.550Z,94.75
2022-10-09T23:14:43.562Z,94.76
2022-10-09T23:17:13.314Z,94.92
2022-10-09T23:19:45.696Z,94.88
2022-10-09T23:22:15.377Z,94.97
2022-10-09T23:24:45.233Z,94.99
2022-10-09T23:27:14.972Z,94.89
2022-10-09T23:29:44.663Z,94.97
2022-10-09T23:32:14.392Z,94.96
2022-10-09T23:34:46.906Z,95.02
2022-10-09T23:37:16.627Z,94.99
2022-10-09T23:39:46.334Z,95.13
2022-10-09T23:42:16.046Z,95.10
2022-10-09T23:44:45.752Z,95.08
2022-10-09T23:47:15.495Z,95.10
2022-10-09T23:49:47.786Z,95.16
2022-10-09T23:52:17.504Z,95.17
2022-10-09T23:54:47.201Z,95.22
2022-10-09T23:57:16.910Z,95.33
2022-10-09T23:59:46.831Z,95.45
